createdAt,value
2022-12-22T00:00:05.987Z,0
2022-12-22T00:01:06.197Z,0
2022-12-22T00:02:06.404Z,0
2022-12-22T00:03:06.914Z,0
2022-12-22T00:04:06.241Z,0
2022-12-22T00:05:06.384Z,0
2022-12-22T00:06:06.419Z,0
2022-12-22T00:07:06.043Z,0
2022-12-22T00:08:06.522Z,0
2022-12-22T00:09:09.870Z,0
2022-12-22T00:10:05.651Z,0
2022-12-22T00:11:06.190Z,-1
2022-12-22T00:12:05.587Z,0
2022-12-22T00:13:06.171Z,0
2022-12-22T00:14:06.432Z,0
2022-12-22T00:15:05.929Z,0
2022-12-22T00:16:05.861Z,0
2022-12-22T00:17:06.144Z,0
2022-12-22T00:18:05.852Z,0
2022-12-22T00:19:06.206Z,0
2022-12-22T00:20:05.944Z,0
2022-12-22T00:21:06.560Z,0
2022-12-22T00:22:05.586Z,-1
2022-12-22T00:23:06.078Z,-1
2022-12-22T00:24:06.362Z,-1
2022-12-22T00:25:06.040Z,-1
2022-12-22T00:26:05.752Z,0
2022-12-22T00:27:06.277Z,0
2022-12-22T00:28:06.353Z,0
2022-12-22T00:29:05.930Z,0
2022-12-22T00:30:06.266Z,0
2022-12-22T00:31:06.486Z,0
2022-12-22T00:32:06.583Z,0
2022-12-22T00:33:05.981Z,0
2022-12-22T00:34:06.470Z,0
2022-12-22T00:35:05.694Z,0
2022-12-22T00:36:06.208Z,0
2022-12-22T00:37:06.267Z,0
2022-12-22T00:38:05.793Z,0
2022-12-22T00:39:05.694Z,0
2022-12-22T00:40:04.518Z,0
2022-12-22T00:41:06.085Z,0
2022-12-22T00:42:05.513Z,0
2022-12-22T00:43:06.345Z,0
2022-12-22T00:44:06.058Z,0
2022-12-22T00:45:05.897Z,0
2022-12-22T00:46:05.716Z,0
2022-12-22T00:47:05.979Z,0
2022-12-22T00:48:06.076Z,0
2022-12-22T00:49:06.406Z,0
2022-12-22T00:50:05.922Z,0
2022-12-22T00:51:06.451Z,0
2022-12-22T00:52:06.180Z,0
2022-12-22T00:53:06.356Z,0
2022-12-22T00:54:06.238Z,0
2022-12-22T00:55:05.667Z,0
2022-12-22T00:56:06.195Z,0
2022-12-22T00:57:05.946Z,0
2022-12-22T00:58:06.263Z,0
2022-12-22T00:59:05.788Z,0
2022-12-22T01:00:06.254Z,0
2022-12-22T01:01:06.518Z,0
2022-12-22T01:02:05.954Z,0
2022-12-22T01:03:05.499Z,0
2022-12-22T01:04:05.855Z,0
2022-12-22T01:05:06.377Z,0
2022-12-22T01:06:05.817Z,0
2022-12-22T01:07:05.509Z,0
2022-12-22T01:08:05.585Z,0
2022-12-22T01:09:06.169Z,0
2022-12-22T01:10:05.248Z,0
2022-12-22T01:11:05.674Z,0
2022-12-22T01:12:06.040Z,0
2022-12-22T01:13:05.675Z,0
2022-12-22T01:14:06.147Z,0
2022-12-22T01:15:06.399Z,0
2022-12-22T01:16:05.761Z,0
2022-12-22T01:17:05.820Z,0
2022-12-22T01:18:06.657Z,0
2022-12-22T01:19:05.797Z,0
2022-12-22T01:20:06.188Z,0
2022-12-22T01:21:05.824Z,-0.1
2022-12-22T01:22:06.127Z,-0.1
2022-12-22T01:23:05.676Z,-0.1
2022-12-22T01:24:06.194Z,0
2022-12-22T01:25:05.697Z,0
2022-12-22T01:26:06.242Z,0
2022-12-22T01:27:05.864Z,0
2022-12-22T01:28:06.376Z,0
2022-12-22T01:29:06.103Z,-1
2022-12-22T01:30:05.706Z,-1
2022-12-22T01:31:06.056Z,-1
2022-12-22T01:32:05.464Z,-1
2022-12-22T01:33:06.000Z,-1
2022-12-22T01:34:06.120Z,-1
2022-12-22T01:35:05.324Z,-0.2
2022-12-22T01:36:05.799Z,-1
2022-12-22T01:37:06.233Z,-1
2022-12-22T01:38:06.429Z,-0.1
2022-12-22T01:39:05.978Z,-0.2
2022-12-22T01:40:05.814Z,-0.2
2022-12-22T01:41:05.515Z,-0.1
2022-12-22T01:42:06.398Z,-0.1
2022-12-22T01:43:06.089Z,-0.2
2022-12-22T01:44:06.241Z,-0.2
2022-12-22T01:45:05.808Z,-0.2
2022-12-22T01:46:06.478Z,-0.2
2022-12-22T01:47:05.713Z,-0.2
2022-12-22T01:48:05.741Z,-0.2
2022-12-22T01:49:06.573Z,-0.2
2022-12-22T01:50:06.310Z,-0.2
2022-12-22T01:51:05.556Z,-0.2
2022-12-22T01:52:06.013Z,-0.2
2022-12-22T01:53:05.485Z,-1
2022-12-22T01:54:06.308Z,-1
2022-12-22T01:55:05.600Z,-1
2022-12-22T01:56:05.884Z,-1
2022-12-22T01:57:06.493Z,-1
2022-12-22T01:58:05.495Z,-1
2022-12-22T01:59:06.295Z,-1
2022-12-22T02:00:05.898Z,-1
2022-12-22T02:01:06.573Z,-0.1
2022-12-22T02:02:05.946Z,-0.1
2022-12-22T02:03:06.240Z,-0.1
2022-12-22T02:04:05.785Z,-0.1
2022-12-22T02:05:05.653Z,-0.1
2022-12-22T02:06:04.963Z,-0.1
2022-12-22T02:07:05.850Z,-0.1
2022-12-22T02:08:05.442Z,-0.1
2022-12-22T02:09:06.341Z,-0.1
2022-12-22T02:10:05.705Z,-0.1
2022-12-22T02:11:05.944Z,-0.1
2022-12-22T02:12:05.883Z,-0.1
2022-12-22T02:13:05.373Z,-0.1
2022-12-22T02:14:05.642Z,-0.1
2022-12-22T02:15:06.105Z,-0.1
2022-12-22T02:16:06.083Z,-0.1
2022-12-22T02:17:06.512Z,-0.1
2022-12-22T02:18:06.059Z,-0.1
2022-12-22T02:19:05.639Z,-0.1
2022-12-22T02:20:06.370Z,-0.1
2022-12-22T02:21:05.584Z,-0.1
2022-12-22T02:22:06.169Z,-0.1
2022-12-22T02:23:06.175Z,-0.1
2022-12-22T02:24:05.699Z,-0.1
2022-12-22T02:25:05.970Z,-0.1
2022-12-22T02:26:06.445Z,0
2022-12-22T02:27:06.007Z,0
2022-12-22T02:28:06.348Z,0
2022-12-22T02:29:05.767Z,0
2022-12-22T02:30:05.562Z,0
2022-12-22T02:31:06.029Z,0
2022-12-22T02:32:06.020Z,0
2022-12-22T02:33:09.755Z,0
2022-12-22T02:34:06.119Z,0
2022-12-22T02:35:05.691Z,0
2022-12-22T02:36:06.461Z,0
2022-12-22T02:37:06.088Z,0
2022-12-22T02:38:06.230Z,0
2022-12-22T02:39:05.905Z,0
2022-12-22T02:40:06.360Z,0
2022-12-22T02:41:05.870Z,0
2022-12-22T02:42:05.750Z,0
2022-12-22T02:43:06.102Z,0
2022-12-22T02:44:06.293Z,0
2022-12-22T02:45:05.707Z,0
2022-12-22T02:46:06.488Z,0
2022-12-22T02:47:05.346Z,0
2022-12-22T02:48:06.127Z,0
2022-12-22T02:49:05.189Z,0
2022-12-22T02:50:06.499Z,0
2022-12-22T02:51:05.755Z,0
2022-12-22T02:52:05.728Z,0
2022-12-22T02:53:06.513Z,0
2022-12-22T02:54:05.867Z,0
2022-12-22T02:55:06.480Z,0
2022-12-22T02:56:06.268Z,0
2022-12-22T02:57:05.829Z,0
2022-12-22T02:58:05.301Z,0
2022-12-22T02:59:05.712Z,0.1
2022-12-22T03:00:06.326Z,0.1
2022-12-22T03:01:06.342Z,0.1
2022-12-22T03:02:06.792Z,0.1
2022-12-22T03:03:06.644Z,0.1
2022-12-22T03:04:05.662Z,0.1
2022-12-22T03:05:06.379Z,0.1
2022-12-22T03:06:06.093Z,0
2022-12-22T03:07:05.626Z,0.1
2022-12-22T03:08:12.453Z,0.1
2022-12-22T03:09:05.616Z,0.2
2022-12-22T03:10:06.553Z,0.2
2022-12-22T03:11:05.502Z,0.2
2022-12-22T03:12:05.897Z,0.2
2022-12-22T03:13:06.173Z,0.2
2022-12-22T03:14:05.515Z,0.2
2022-12-22T03:15:06.245Z,0.2
2022-12-22T03:16:06.609Z,0.2
2022-12-22T03:17:06.259Z,0
2022-12-22T03:18:06.516Z,0.2
2022-12-22T03:19:06.415Z,0.2
2022-12-22T03:20:05.674Z,0
2022-12-22T03:21:06.624Z,0
2022-12-22T03:22:05.287Z,0.3
2022-12-22T03:23:05.930Z,0.3
2022-12-22T03:24:05.876Z,0.3
2022-12-22T03:25:05.928Z,0.3
2022-12-22T03:26:05.859Z,0.3
2022-12-22T03:27:05.791Z,0.3
2022-12-22T03:28:06.005Z,0.3
2022-12-22T03:29:05.914Z,0.4
2022-12-22T03:30:06.368Z,0.4
2022-12-22T03:31:05.812Z,0.4
2022-12-22T03:32:05.641Z,0.4
2022-12-22T03:33:06.144Z,0.4
2022-12-22T03:34:05.687Z,0.4
2022-12-22T03:35:06.265Z,0.4
2022-12-22T03:36:05.804Z,0.4
2022-12-22T03:37:06.346Z,0
2022-12-22T03:38:06.242Z,0.4
2022-12-22T03:39:05.843Z,0.4
2022-12-22T03:40:06.447Z,0.4
2022-12-22T03:41:06.262Z,0
2022-12-22T03:42:05.765Z,0.4
2022-12-22T03:43:05.574Z,0.4
2022-12-22T03:44:06.219Z,0.4
2022-12-22T03:45:06.181Z,0.4
2022-12-22T03:46:05.805Z,0.4
2022-12-22T03:47:06.525Z,0.4
2022-12-22T03:48:05.526Z,0.4
2022-12-22T03:49:06.227Z,0.4
2022-12-22T03:50:06.053Z,0.4
2022-12-22T03:51:06.123Z,0.4
2022-12-22T03:52:06.140Z,0.4
2022-12-22T03:53:05.814Z,0.5
2022-12-22T03:54:06.299Z,0.4
2022-12-22T03:55:05.809Z,0.4
2022-12-22T03:56:11.962Z,0.5
2022-12-22T03:57:05.561Z,0.5
2022-12-22T03:58:06.263Z,0.5
2022-12-22T03:59:05.724Z,0.5
2022-12-22T04:00:06.185Z,0.5
2022-12-22T04:01:04.902Z,0.5
2022-12-22T04:02:06.996Z,0.5
2022-12-22T04:03:06.859Z,0.5
2022-12-22T04:04:06.624Z,0
2022-12-22T04:05:06.132Z,0.5
2022-12-22T04:06:05.455Z,0.5
2022-12-22T04:07:06.091Z,0.5
2022-12-22T04:08:05.616Z,0.5
2022-12-22T04:09:06.220Z,0.5
2022-12-22T04:10:05.895Z,0.5
2022-12-22T04:11:06.383Z,0
2022-12-22T04:12:05.884Z,0.5
2022-12-22T04:13:06.122Z,0.5
2022-12-22T04:14:06.418Z,0.6
2022-12-22T04:15:06.349Z,0.6
2022-12-22T04:16:06.240Z,0.5
2022-12-22T04:17:06.347Z,0.5
2022-12-22T04:18:05.957Z,0.6
2022-12-22T04:19:06.411Z,0.6
2022-12-22T04:20:05.870Z,0.6
2022-12-22T04:21:06.360Z,0.6
2022-12-22T04:22:05.993Z,0.6
2022-12-22T04:23:05.916Z,0.6
2022-12-22T04:24:05.731Z,0.6
2022-12-22T04:25:06.033Z,0.6
2022-12-22T04:26:05.687Z,0.6
2022-12-22T04:27:05.508Z,0.6
2022-12-22T04:28:06.422Z,0
2022-12-22T04:29:05.735Z,0.6
2022-12-22T04:30:06.147Z,0.6
2022-12-22T04:31:06.565Z,0.7
2022-12-22T04:32:06.218Z,0.6
2022-12-22T04:33:06.245Z,0.6
2022-12-22T04:34:06.320Z,0.6
2022-12-22T04:35:05.765Z,0.6
2022-12-22T04:36:06.296Z,0.7
2022-12-22T04:37:19.888Z,0.7
2022-12-22T04:38:05.633Z,0.7
2022-12-22T04:39:06.353Z,0.7
2022-12-22T04:40:05.993Z,0
2022-12-22T04:41:06.453Z,0.7
2022-12-22T04:42:05.866Z,0.7
2022-12-22T04:43:06.431Z,0.7
2022-12-22T04:44:06.335Z,0.7
2022-12-22T04:45:05.897Z,0.7
2022-12-22T04:46:06.410Z,0.7
2022-12-22T04:47:06.406Z,0.7
2022-12-22T04:48:06.424Z,0.7
2022-12-22T04:49:05.647Z,0.7
2022-12-22T04:50:06.354Z,0.7
2022-12-22T04:51:05.625Z,0.7
2022-12-22T04:52:06.034Z,0.8
2022-12-22T04:53:06.009Z,0.8
2022-12-22T04:54:05.713Z,0.8
2022-12-22T04:55:06.254Z,0.8
2022-12-22T04:56:05.668Z,0.7
2022-12-22T04:57:05.689Z,0.8
2022-12-22T04:58:04.773Z,0.8
2022-12-22T04:59:06.393Z,0.8
2022-12-22T05:00:06.080Z,0.8
2022-12-22T05:01:06.676Z,0.8
2022-12-22T05:02:06.511Z,0.8
2022-12-22T05:03:06.169Z,0.8
2022-12-22T05:04:06.459Z,0
2022-12-22T05:05:06.066Z,0.8
2022-12-22T05:06:06.580Z,0.8
2022-12-22T05:07:06.066Z,0.8
2022-12-22T05:08:05.860Z,0.8
2022-12-22T05:09:06.280Z,0.8
2022-12-22T05:10:05.762Z,0.8
2022-12-22T05:11:06.212Z,0.8
2022-12-22T05:12:05.875Z,0.8
2022-12-22T05:13:05.818Z,0.8
2022-12-22T05:14:11.386Z,0
2022-12-22T05:15:06.077Z,0
2022-12-22T05:16:05.983Z,0
2022-12-22T05:17:06.293Z,0
2022-12-22T05:18:06.560Z,0
2022-12-22T05:19:06.234Z,0.8
2022-12-22T05:20:05.720Z,0.8
2022-12-22T05:21:05.697Z,0.8
2022-12-22T05:22:06.287Z,0.8
2022-12-22T05:23:04.498Z,0.8
2022-12-22T05:24:05.902Z,0.8
2022-12-22T05:25:06.156Z,0.8
2022-12-22T05:26:05.704Z,0
2022-12-22T05:27:05.680Z,0
2022-12-22T05:28:05.835Z,0.8
2022-12-22T05:29:06.404Z,0.8
2022-12-22T05:30:05.817Z,0.8
2022-12-22T05:31:05.877Z,0.8
2022-12-22T05:32:05.856Z,0.8
2022-12-22T05:33:06.527Z,0.8
2022-12-22T05:34:06.403Z,0.8
2022-12-22T05:35:05.270Z,0.8
2022-12-22T05:36:05.951Z,0.8
2022-12-22T05:37:05.935Z,0.8
2022-12-22T05:38:06.210Z,0.8
2022-12-22T05:39:05.936Z,0.9
2022-12-22T05:40:05.700Z,0.9
2022-12-22T05:41:08.773Z,0.9
2022-12-22T05:42:06.472Z,0.8
2022-12-22T05:43:06.022Z,0.8
2022-12-22T05:44:05.613Z,0.8
2022-12-22T05:45:06.325Z,1
2022-12-22T05:46:06.417Z,0.8
2022-12-22T05:47:05.728Z,0.9
2022-12-22T05:48:05.267Z,0.9
2022-12-22T05:49:05.686Z,0.8
2022-12-22T05:50:05.820Z,1
2022-12-22T05:51:06.046Z,0.8
2022-12-22T05:52:06.113Z,0.8
2022-12-22T05:53:05.629Z,0.8
2022-12-22T05:54:06.128Z,0.8
2022-12-22T05:55:05.701Z,0.9
2022-12-22T05:56:06.251Z,0.9
2022-12-22T05:57:05.794Z,0.9
2022-12-22T05:58:06.324Z,0.9
2022-12-22T05:59:05.763Z,0.9
2022-12-22T06:00:06.356Z,0.9
2022-12-22T06:01:05.426Z,0.9
2022-12-22T06:02:06.397Z,0.8
2022-12-22T06:03:06.619Z,0.8
2022-12-22T06:04:06.835Z,0.9
2022-12-22T06:05:06.426Z,0.8
2022-12-22T06:06:06.029Z,0.8
2022-12-22T06:07:06.589Z,0.8
2022-12-22T06:08:06.055Z,0.8
2022-12-22T06:09:05.565Z,0.8
2022-12-22T06:10:15.104Z,0.8
2022-12-22T06:11:05.561Z,0.8
2022-12-22T06:12:06.187Z,1
2022-12-22T06:13:05.860Z,1
2022-12-22T06:14:06.305Z,0.8
2022-12-22T06:15:06.375Z,0.8
2022-12-22T06:16:06.348Z,1
2022-12-22T06:17:05.644Z,0.8
2022-12-22T06:18:06.190Z,0.8
2022-12-22T06:19:06.364Z,0.8
2022-12-22T06:20:06.019Z,0.9
2022-12-22T06:21:05.861Z,0.9
2022-12-22T06:22:06.350Z,0.9
2022-12-22T06:23:05.980Z,0.9
2022-12-22T06:24:06.099Z,0.8
2022-12-22T06:25:05.547Z,0.8
2022-12-22T06:26:06.261Z,0.8
2022-12-22T06:27:05.081Z,0.8
2022-12-22T06:28:06.465Z,0.8
2022-12-22T06:29:05.742Z,2
2022-12-22T06:30:05.747Z,0.8
2022-12-22T06:31:06.600Z,0.8
2022-12-22T06:32:05.781Z,0.8
2022-12-22T06:33:06.127Z,0.8
2022-12-22T06:34:06.060Z,0.8
2022-12-22T06:35:05.538Z,0.8
2022-12-22T06:36:06.068Z,0.8
2022-12-22T06:37:05.541Z,0.8
2022-12-22T06:38:06.181Z,0.9
2022-12-22T06:39:05.432Z,2
2022-12-22T06:40:06.234Z,1
2022-12-22T06:41:06.366Z,1
2022-12-22T06:42:05.944Z,1.1
2022-12-22T06:43:13.088Z,1.1
2022-12-22T06:44:05.610Z,1.2
2022-12-22T06:45:06.366Z,1.2
2022-12-22T06:46:06.435Z,1.2
2022-12-22T06:47:05.771Z,1.2
2022-12-22T06:48:06.193Z,1.3
2022-12-22T06:49:05.710Z,1.4
2022-12-22T06:50:06.241Z,1.4
2022-12-22T06:51:05.596Z,1.5
2022-12-22T06:52:06.149Z,1.6
2022-12-22T06:53:05.619Z,1.6
2022-12-22T06:54:06.527Z,3
2022-12-22T06:55:06.000Z,1.8
2022-12-22T06:56:06.507Z,1.8
2022-12-22T06:57:06.009Z,1.8
2022-12-22T06:58:05.989Z,1.8
2022-12-22T06:59:05.519Z,1.9
2022-12-22T07:00:06.393Z,1.9
2022-12-22T07:01:06.006Z,2
2022-12-22T07:02:07.129Z,2
2022-12-22T07:03:06.844Z,2
2022-12-22T07:04:06.435Z,2
2022-12-22T07:05:04.650Z,2
2022-12-22T07:06:06.050Z,2.1
2022-12-22T07:07:05.773Z,2.1
2022-12-22T07:08:12.641Z,2.1
2022-12-22T07:09:05.900Z,2.1
2022-12-22T07:10:06.520Z,2.2
2022-12-22T07:11:06.505Z,2.2
2022-12-22T07:12:05.985Z,2.2
2022-12-22T07:13:06.406Z,2.3
2022-12-22T07:14:05.942Z,2.4
2022-12-22T07:15:06.252Z,2.4
2022-12-22T07:16:06.880Z,2.4
2022-12-22T07:17:05.939Z,2.4
2022-12-22T07:18:06.478Z,2.4
2022-12-22T07:19:06.121Z,2.5
2022-12-22T07:20:05.619Z,2.5
2022-12-22T07:21:06.184Z,2.5
2022-12-22T07:22:06.273Z,2.5
2022-12-22T07:23:05.890Z,2.5
2022-12-22T07:24:06.098Z,2.5
2022-12-22T07:25:05.768Z,2.5
2022-12-22T07:26:06.206Z,2.5
2022-12-22T07:27:05.681Z,2.5
2022-12-22T07:28:05.003Z,3
2022-12-22T07:29:06.497Z,2.6
2022-12-22T07:30:05.499Z,2.6
2022-12-22T07:31:05.856Z,2.6
2022-12-22T07:32:05.571Z,2.6
2022-12-22T07:33:06.338Z,2.6
2022-12-22T07:34:05.801Z,2.6
2022-12-22T07:35:10.255Z,2.7
2022-12-22T07:36:06.142Z,2.8
2022-12-22T07:37:06.534Z,2.8
2022-12-22T07:38:06.049Z,2.8
2022-12-22T07:39:06.582Z,3
2022-12-22T07:40:05.988Z,2.9
2022-12-22T07:41:09.145Z,2.9
2022-12-22T07:42:04.934Z,2.9
2022-12-22T07:43:06.468Z,2.9
2022-12-22T07:44:05.979Z,2.9
2022-12-22T07:45:05.932Z,3
2022-12-22T07:46:06.045Z,3
2022-12-22T07:47:06.461Z,3.1
2022-12-22T07:48:05.670Z,3.1
2022-12-22T07:49:07.308Z,3.1
2022-12-22T07:50:05.855Z,3.2
2022-12-22T07:51:05.716Z,3.2
2022-12-22T07:52:06.380Z,3.2
2022-12-22T07:53:05.903Z,3.3
2022-12-22T07:54:04.516Z,3.3
2022-12-22T07:55:06.668Z,3.3
2022-12-22T07:56:05.931Z,3.3
2022-12-22T07:57:06.396Z,3.3
2022-12-22T07:58:06.159Z,3.3
2022-12-22T07:59:05.812Z,3.4
2022-12-22T08:00:05.811Z,3.4
2022-12-22T08:01:05.696Z,3.4
2022-12-22T08:02:07.020Z,3.4
2022-12-22T08:03:06.338Z,3.4
2022-12-22T08:04:06.437Z,3.4
2022-12-22T08:05:06.168Z,3.4
2022-12-22T08:06:05.455Z,3.5
2022-12-22T08:07:04.644Z,3.4
2022-12-22T08:08:06.080Z,3.4
2022-12-22T08:09:05.555Z,3.4
2022-12-22T08:10:06.264Z,3.5
2022-12-22T08:11:05.618Z,3.5
2022-12-22T08:12:06.201Z,3.6
2022-12-22T08:13:06.037Z,3.6
2022-12-22T08:14:06.677Z,5
2022-12-22T08:15:05.790Z,3.6
2022-12-22T08:16:06.296Z,3.6
2022-12-22T08:17:06.319Z,3.7
2022-12-22T08:18:05.763Z,3.8
2022-12-22T08:19:06.514Z,3.7
2022-12-22T08:20:05.724Z,3.8
2022-12-22T08:21:05.451Z,3.8
2022-12-22T08:22:05.852Z,3.8
2022-12-22T08:23:06.391Z,3.9
2022-12-22T08:24:06.121Z,3.9
2022-12-22T08:25:05.646Z,4
2022-12-22T08:26:06.078Z,4
2022-12-22T08:27:06.611Z,4.1
2022-12-22T08:28:06.004Z,4.1
2022-12-22T08:29:06.673Z,4.2
2022-12-22T08:30:05.794Z,4.2
2022-12-22T08:31:06.276Z,4.3
2022-12-22T08:32:05.454Z,4.3
2022-12-22T08:33:06.022Z,4.3
2022-12-22T08:34:05.609Z,4.3
2022-12-22T08:35:05.934Z,4.3
2022-12-22T08:36:12.253Z,4.3
2022-12-22T08:37:06.525Z,4.3
2022-12-22T08:38:05.977Z,4.3
2022-12-22T08:39:06.012Z,4.3
2022-12-22T08:40:05.494Z,4.3
2022-12-22T08:41:05.991Z,4.3
2022-12-22T08:42:05.837Z,4.3
2022-12-22T08:43:06.459Z,4.4
2022-12-22T08:44:05.983Z,4.4
2022-12-22T08:45:06.541Z,4.4
2022-12-22T08:46:06.437Z,4.4
2022-12-22T08:47:08.930Z,4.4
2022-12-22T08:48:06.257Z,4.5
2022-12-22T08:49:05.888Z,4.5
2022-12-22T08:50:06.195Z,6
2022-12-22T08:51:06.247Z,4.7
2022-12-22T08:52:05.926Z,4.8
2022-12-22T08:53:06.142Z,4.8
2022-12-22T08:54:09.794Z,4.9
2022-12-22T08:55:06.179Z,5
2022-12-22T08:56:05.690Z,5.2
2022-12-22T08:57:06.164Z,5.2
2022-12-22T08:58:07.281Z,5.3
2022-12-22T08:59:05.782Z,5.3
2022-12-22T09:00:05.063Z,5.4
2022-12-22T09:01:05.866Z,6
2022-12-22T09:02:06.585Z,5.7
2022-12-22T09:03:06.723Z,5.7
2022-12-22T09:04:05.760Z,5.8
2022-12-22T09:05:06.391Z,5.9
2022-12-22T09:06:05.940Z,5.9
2022-12-22T09:07:06.397Z,6
2022-12-22T09:08:06.036Z,6
2022-12-22T09:09:05.699Z,6.1
2022-12-22T09:10:06.218Z,6.2
2022-12-22T09:11:05.618Z,6.2
2022-12-22T09:12:06.497Z,6.3
2022-12-22T09:13:05.990Z,7
2022-12-22T09:14:06.015Z,7
2022-12-22T09:15:06.471Z,6.4
2022-12-22T09:16:05.774Z,6.5
2022-12-22T09:17:05.327Z,6.6
2022-12-22T09:18:05.629Z,6.7
2022-12-22T09:19:06.192Z,6.7
2022-12-22T09:20:05.608Z,6.9
2022-12-22T09:21:06.159Z,7
2022-12-22T09:22:05.863Z,7
2022-12-22T09:23:06.330Z,7.1
2022-12-22T09:24:06.042Z,7.1
2022-12-22T09:25:06.457Z,7.2
2022-12-22T09:26:05.959Z,7
2022-12-22T09:27:05.607Z,7
2022-12-22T09:28:06.155Z,7
2022-12-22T09:29:05.726Z,7
2022-12-22T09:30:06.310Z,6.9
2022-12-22T09:31:05.767Z,6.9
2022-12-22T09:32:06.562Z,6.9
2022-12-22T09:33:06.044Z,6.9
2022-12-22T09:34:08.632Z,7
2022-12-22T09:35:05.822Z,7
2022-12-22T09:36:06.324Z,7.2
2022-12-22T09:37:05.904Z,7.2
2022-12-22T09:38:06.504Z,7.3
2022-12-22T09:39:06.516Z,7.4
2022-12-22T09:40:06.103Z,7.4
2022-12-22T09:41:05.594Z,7.4
2022-12-22T09:42:06.088Z,7.4
2022-12-22T09:43:06.341Z,7.4
2022-12-22T09:44:05.563Z,7.4
2022-12-22T09:45:05.973Z,7.4
2022-12-22T09:46:06.683Z,7.4
2022-12-22T09:47:06.369Z,7.4
2022-12-22T09:48:05.907Z,7.4
2022-12-22T09:49:05.539Z,7.4
2022-12-22T09:50:05.993Z,7.3
2022-12-22T09:51:06.543Z,7.3
2022-12-22T09:52:06.127Z,7.3
2022-12-22T09:53:06.502Z,7.2
2022-12-22T09:54:06.104Z,7.2
2022-12-22T09:55:06.441Z,7.1
2022-12-22T09:56:06.028Z,7.2
2022-12-22T09:57:06.453Z,7.2
2022-12-22T09:58:06.155Z,7.1
2022-12-22T09:59:06.116Z,7.1
2022-12-22T10:00:05.488Z,7.1
2022-12-22T10:01:05.847Z,7
2022-12-22T10:02:06.843Z,7
2022-12-22T10:03:06.668Z,7.1
2022-12-22T10:04:05.844Z,7.1
2022-12-22T10:05:06.335Z,7.1
2022-12-22T10:06:05.879Z,7.2
2022-12-22T10:07:06.313Z,7.2
2022-12-22T10:08:05.995Z,7.2
2022-12-22T10:09:20.481Z,7.2
2022-12-22T10:10:06.364Z,7.4
2022-12-22T10:11:04.644Z,7.4
2022-12-22T10:12:06.210Z,7.5
2022-12-22T10:13:06.388Z,7.5
2022-12-22T10:14:06.551Z,7.7
2022-12-22T10:15:05.613Z,7.8
2022-12-22T10:16:05.887Z,7.9
2022-12-22T10:17:06.576Z,7.9
2022-12-22T10:18:05.790Z,8
2022-12-22T10:19:06.720Z,8
2022-12-22T10:20:06.072Z,8
2022-12-22T10:21:06.382Z,8
2022-12-22T10:22:06.093Z,8
2022-12-22T10:23:06.321Z,8.1
2022-12-22T10:24:06.661Z,8
2022-12-22T10:25:06.134Z,8.1
2022-12-22T10:26:33.932Z,8
2022-12-22T10:27:05.081Z,8
2022-12-22T10:28:05.611Z,8
2022-12-22T10:29:06.140Z,8
2022-12-22T10:30:05.700Z,8.1
2022-12-22T10:31:06.280Z,8.1
2022-12-22T10:32:05.955Z,8
2022-12-22T10:33:06.222Z,8
2022-12-22T10:34:05.613Z,8.2
2022-12-22T10:35:06.156Z,8.2
2022-12-22T10:36:05.672Z,8.2
2022-12-22T10:37:06.215Z,8.2
2022-12-22T10:38:23.303Z,8.3
2022-12-22T10:39:06.261Z,8.3
2022-12-22T10:40:05.299Z,8.4
2022-12-22T10:41:06.939Z,8.3
2022-12-22T10:42:06.154Z,8.2
2022-12-22T10:43:06.103Z,8.2
2022-12-22T10:44:06.507Z,8
2022-12-22T10:45:06.027Z,8
2022-12-22T10:46:06.782Z,8
2022-12-22T10:47:05.844Z,8.2
2022-12-22T10:48:06.480Z,8.2
2022-12-22T10:49:05.981Z,8.1
2022-12-22T10:50:05.497Z,8.1
2022-12-22T10:51:06.015Z,8
2022-12-22T10:52:05.711Z,8.1
2022-12-22T10:53:06.271Z,8
2022-12-22T10:54:06.092Z,8
2022-12-22T10:55:06.508Z,8
2022-12-22T10:56:05.957Z,8
2022-12-22T10:57:05.314Z,8
2022-12-22T10:58:09.789Z,8.1
2022-12-22T10:59:06.002Z,8
2022-12-22T11:00:06.653Z,8
2022-12-22T11:01:06.208Z,8.1
2022-12-22T11:02:06.486Z,8
2022-12-22T11:03:06.617Z,8
2022-12-22T11:04:06.722Z,8
2022-12-22T11:05:05.994Z,8
2022-12-22T11:06:05.704Z,7
2022-12-22T11:07:06.245Z,7
2022-12-22T11:08:06.656Z,7
2022-12-22T11:09:37.610Z,8
2022-12-22T11:10:05.701Z,8
2022-12-22T11:11:06.315Z,8
2022-12-22T11:12:05.394Z,7
2022-12-22T11:13:06.460Z,7
2022-12-22T11:14:05.608Z,7.9
2022-12-22T11:15:06.057Z,7.9
2022-12-22T11:16:05.771Z,7.9
2022-12-22T11:17:06.303Z,7.9
2022-12-22T11:18:05.972Z,7.9
2022-12-22T11:19:06.518Z,8
2022-12-22T11:20:06.030Z,7.9
2022-12-22T11:21:06.530Z,7.9
2022-12-22T11:22:06.096Z,7.9
2022-12-22T11:23:05.750Z,7.9
2022-12-22T11:24:06.111Z,7.9
2022-12-22T11:25:05.834Z,7.9
2022-12-22T11:26:05.168Z,7.9
2022-12-22T11:27:05.916Z,7.8
2022-12-22T11:28:06.615Z,7.8
2022-12-22T11:29:05.765Z,7.8
2022-12-22T11:30:06.723Z,7.8
2022-12-22T11:31:06.091Z,7.8
2022-12-22T11:32:06.235Z,7.8
2022-12-22T11:33:06.717Z,7.8
2022-12-22T11:34:06.078Z,7.8
2022-12-22T11:35:05.651Z,7.8
2022-12-22T11:36:06.196Z,7.8
2022-12-22T11:37:05.768Z,7.8
2022-12-22T11:38:05.989Z,7.8
2022-12-22T11:39:06.700Z,7.8
2022-12-22T11:40:05.816Z,7.7
2022-12-22T11:41:04.994Z,7.7
2022-12-22T11:42:06.198Z,7.7
2022-12-22T11:43:05.863Z,8
2022-12-22T11:44:05.988Z,8
2022-12-22T11:45:05.842Z,7.7
2022-12-22T11:46:06.432Z,7.6
2022-12-22T11:47:05.737Z,7.6
2022-12-22T11:48:06.497Z,7.6
2022-12-22T11:49:05.929Z,7.6
2022-12-22T11:51:14.920Z,7.6
2022-12-22T11:51:27.083Z,7.6
2022-12-22T11:52:06.462Z,7.5
2022-12-22T11:53:05.751Z,7.5
2022-12-22T11:54:14.584Z,7.5
2022-12-22T11:55:06.137Z,8
2022-12-22T11:56:05.483Z,7.4
2022-12-22T11:57:04.765Z,7.4
2022-12-22T11:58:06.386Z,7.3
2022-12-22T11:59:05.894Z,7.3
2022-12-22T12:00:05.711Z,7.4
2022-12-22T12:01:28.061Z,7.3
2022-12-22T12:02:06.576Z,7.3
2022-12-22T12:03:06.165Z,7.3
2022-12-22T12:04:06.719Z,7.3
2022-12-22T12:05:06.196Z,7.3
2022-12-22T12:06:05.771Z,7.3
2022-12-22T12:07:06.284Z,8
2022-12-22T12:08:05.727Z,7.2
2022-12-22T12:09:06.327Z,7.2
2022-12-22T12:10:05.987Z,7.2
2022-12-22T12:11:06.361Z,7.2
2022-12-22T12:12:05.810Z,7.2
2022-12-22T12:13:06.392Z,7.2
2022-12-22T12:14:05.964Z,7.2
2022-12-22T12:15:06.617Z,7.1
2022-12-22T12:16:06.404Z,7.1
2022-12-22T12:17:05.813Z,7.1
2022-12-22T12:18:06.399Z,7.1
2022-12-22T12:19:05.856Z,7
2022-12-22T12:20:06.070Z,7
2022-12-22T12:21:05.579Z,7
2022-12-22T12:22:06.121Z,7
2022-12-22T12:23:06.786Z,6.9
2022-12-22T12:24:05.449Z,7
2022-12-22T12:25:05.013Z,6.9
2022-12-22T12:26:06.437Z,6.8
2022-12-22T12:27:06.351Z,6.8
2022-12-22T12:28:05.902Z,6.8
2022-12-22T12:29:06.495Z,6.8
2022-12-22T12:30:41.768Z,6.8
2022-12-22T12:32:06.524Z,6.7
2022-12-22T12:33:06.542Z,6.7
2022-12-22T12:34:06.184Z,6.7
2022-12-22T12:35:06.421Z,6.6
2022-12-22T12:36:06.096Z,6.6
2022-12-22T12:37:05.613Z,6.5
2022-12-22T12:38:05.475Z,6.5
2022-12-22T12:39:14.070Z,6.5
2022-12-22T12:40:06.122Z,6.5
2022-12-22T12:41:05.647Z,6.5
2022-12-22T12:42:05.912Z,6.4
2022-12-22T12:43:08.514Z,6.5
2022-12-22T12:44:05.915Z,6.5
2022-12-22T12:45:05.936Z,6
2022-12-22T12:46:06.906Z,6.4
2022-12-22T12:47:06.323Z,6.4
2022-12-22T12:48:05.588Z,6.4
2022-12-22T12:49:06.119Z,6.4
2022-12-22T12:50:05.596Z,6.4
2022-12-22T12:51:06.121Z,6.4
2022-12-22T12:52:04.633Z,6.4
2022-12-22T12:53:06.083Z,7
2022-12-22T12:54:05.900Z,7
2022-12-22T12:55:06.412Z,6.4
2022-12-22T12:56:05.876Z,6.4
2022-12-22T12:57:06.245Z,6.5
2022-12-22T12:58:06.362Z,6.4
2022-12-22T12:59:05.758Z,6.4
2022-12-22T13:00:06.267Z,6.4
2022-12-22T13:01:05.808Z,6.5
2022-12-22T13:02:06.935Z,6.5
2022-12-22T13:03:06.516Z,6.5
2022-12-22T13:04:08.813Z,6.5
2022-12-22T13:05:05.740Z,6.5
2022-12-22T13:06:06.348Z,6.6
2022-12-22T13:07:06.390Z,6.6
2022-12-22T13:08:05.988Z,6.5
2022-12-22T13:09:53.834Z,6.5
2022-12-22T13:11:06.215Z,6.5
2022-12-22T13:12:24.667Z,6.5
2022-12-22T13:13:05.849Z,6.5
2022-12-22T13:14:06.460Z,6.5
2022-12-22T13:15:06.265Z,6.5
2022-12-22T13:16:06.482Z,6.5
2022-12-22T13:17:05.960Z,6.5
2022-12-22T13:18:06.902Z,6.5
2022-12-22T13:19:06.103Z,6.4
2022-12-22T13:20:05.966Z,6.4
2022-12-22T13:21:56.123Z,6.5
2022-12-22T13:23:05.875Z,6.6
2022-12-22T13:24:36.565Z,6.6
2022-12-22T13:25:06.204Z,6.6
2022-12-22T13:26:06.422Z,6.6
2022-12-22T13:27:06.070Z,6.6
2022-12-22T13:28:06.458Z,6.6
2022-12-22T13:29:06.289Z,6.6
2022-12-22T13:30:12.998Z,7
2022-12-22T13:31:06.475Z,7
2022-12-22T13:32:06.311Z,6.5
2022-12-22T13:33:06.412Z,6.5
2022-12-22T13:34:05.799Z,6.5
2022-12-22T13:35:46.541Z,6.5
2022-12-22T13:36:05.896Z,6.6
2022-12-22T13:37:06.387Z,6.6
2022-12-22T13:38:06.006Z,6.5
2022-12-22T13:39:06.601Z,6.6
2022-12-22T13:40:06.246Z,7
2022-12-22T13:41:05.439Z,7
2022-12-22T13:42:06.276Z,6.5
2022-12-22T13:43:06.491Z,6.5
2022-12-22T13:44:06.067Z,6.5
2022-12-22T13:45:06.300Z,6.5
2022-12-22T13:46:06.151Z,6.5
2022-12-22T13:47:06.555Z,6.5
2022-12-22T13:48:05.702Z,6.5
2022-12-22T13:49:06.333Z,6.5
2022-12-22T13:50:14.426Z,6.4
2022-12-22T13:51:06.522Z,6.4
2022-12-22T13:52:09.530Z,6.5
2022-12-22T13:53:05.974Z,6.4
2022-12-22T13:54:15.168Z,6.4
2022-12-22T13:55:06.207Z,6.4
2022-12-22T13:56:05.718Z,6.5
2022-12-22T13:57:06.362Z,6.5
2022-12-22T13:58:05.776Z,6.4
2022-12-22T13:59:06.064Z,6.5
2022-12-22T14:00:05.356Z,6.5
2022-12-22T14:01:06.273Z,6.5
2022-12-22T14:02:06.079Z,6.5
2022-12-22T14:03:09.130Z,6.4